createdAt,value
2022-09-10T00:00:38.154Z,97.09
2022-09-10T00:01:37.426Z,97.19
2022-09-10T00:02:36.653Z,97.60
2022-09-10T00:03:37.206Z,97.90
2022-09-10T00:04:37.344Z,98.16
2022-09-10T00:05:36.550Z,97.85
2022-09-10T00:06:38.134Z,97.96
2022-09-10T00:07:36.995Z,98.05
2022-09-10T00:08:36.623Z,97.25
2022-09-10T00:09:38.485Z,96.94
2022-09-10T00:10:37.474Z,97.14
2022-09-10T00:11:37.225Z,97.09
2022-09-10T00:12:37.376Z,97.69
2022-09-10T00:13:36.445Z,97.60
2022-09-10T00:14:37.085Z,97.60
2022-09-10T00:15:36.436Z,97.39
2022-09-10T00:16:37.141Z,97.90
2022-09-10T00:17:37.194Z,97.69
2022-09-10T00:18:36.465Z,97.80
2022-09-10T00:19:37.757Z,98.00
2022-09-10T00:20:37.105Z,97.69
2022-09-10T00:21:36.374Z,97.90
2022-09-10T00:22:37.736Z,97.69
2022-09-10T00:23:37.215Z,97.60
2022-09-10T00:24:36.345Z,97.34
2022-09-10T00:25:37.746Z,97.34
2022-09-10T00:26:36.464Z,97.74
2022-09-10T00:27:36.315Z,97.24
2022-09-10T00:28:38.235Z,97.54
2022-09-10T00:29:37.305Z,97.74
2022-09-10T00:30:36.294Z,97.34
2022-09-10T00:31:37.825Z,97.49
2022-09-10T00:32:36.741Z,97.49
2022-09-10T00:33:36.245Z,97.79
2022-09-10T00:34:37.046Z,98.29
2022-09-10T00:35:36.224Z,98.34
2022-09-10T00:36:37.684Z,98.34
2022-09-10T00:37:36.675Z,98.74
2022-09-10T00:38:38.166Z,98.24
2022-09-10T00:39:36.230Z,98.65
2022-09-10T00:40:36.184Z,99.40
2022-09-10T00:41:38.060Z,99.50
2022-09-10T00:42:36.804Z,99.80
2022-09-10T00:43:36.905Z,99.70
2022-09-10T00:44:36.136Z,99.60
2022-09-10T00:45:38.213Z,99.50
2022-09-10T00:46:37.124Z,99.50
2022-09-10T00:47:36.106Z,99.60
2022-09-10T00:48:37.809Z,99.60
2022-09-10T00:49:36.574Z,99.86
2022-09-10T00:50:36.084Z,99.46
2022-09-10T00:51:37.774Z,99.25
2022-09-10T00:52:39.805Z,99.05
2022-09-10T00:53:36.045Z,98.85
2022-09-10T00:54:36.795Z,99.46
2022-09-10T00:55:36.024Z,99.35
2022-09-10T00:56:38.126Z,99.01
2022-09-10T00:57:36.944Z,98.70
2022-09-10T00:58:35.986Z,99.01
2022-09-10T00:59:36.828Z,98.90
2022-09-10T01:00:36.056Z,99.30
2022-09-10T01:01:37.298Z,97.79
2022-09-10T01:02:36.094Z,97.49
2022-09-10T01:03:36.585Z,97.54
2022-09-10T01:04:35.926Z,97.24
2022-09-10T01:05:37.425Z,98.55
2022-09-10T01:06:36.816Z,97.80
2022-09-10T01:07:35.896Z,95.27
2022-09-10T01:08:37.325Z,96.08
2022-09-10T01:09:36.396Z,96.98
2022-09-10T01:10:35.915Z,96.58
2022-09-10T01:11:37.336Z,96.58
2022-09-10T01:12:36.427Z,95.98
2022-09-10T01:13:35.835Z,94.86
2022-09-10T01:14:37.186Z,95.87
2022-09-10T01:15:36.056Z,96.08
2022-09-10T01:16:35.851Z,96.28
2022-09-10T01:17:37.247Z,95.37
2022-09-10T01:18:36.478Z,96.08
2022-09-10T01:19:37.627Z,96.02
2022-09-10T01:20:35.755Z,96.28
2022-09-10T01:21:35.795Z,95.82
2022-09-10T01:22:36.405Z,95.98
2022-09-10T01:23:35.744Z,95.31
2022-09-10T01:24:37.195Z,95.92
2022-09-10T01:25:36.646Z,95.82
2022-09-10T01:26:35.697Z,95.31
2022-09-10T01:27:37.276Z,95.11
2022-09-10T01:28:36.456Z,95.36
2022-09-10T01:29:36.476Z,95.56
2022-09-10T01:30:35.655Z,95.15
2022-09-10T01:31:37.274Z,95.76
2022-09-10T01:32:36.406Z,95.86
2022-09-10T01:33:36.245Z,95.56
2022-09-10T01:34:35.606Z,95.36
2022-09-10T01:35:37.244Z,94.95
2022-09-10T01:36:37.579Z,95.26
2022-09-10T01:37:35.626Z,96.17
2022-09-10T01:38:36.485Z,95.86
2022-09-10T01:39:36.453Z,96.47
2022-09-10T01:40:35.544Z,96.88
2022-09-10T01:41:37.456Z,96.27
2022-09-10T01:42:36.400Z,96.51
2022-09-10T01:43:35.577Z,96.11
2022-09-10T01:44:37.447Z,96.82
2022-09-10T01:45:36.425Z,97.13
2022-09-10T01:46:36.303Z,97.83
2022-09-10T01:47:35.525Z,97.69
2022-09-10T01:48:37.036Z,96.11
2022-09-10T01:49:36.512Z,96.01
2022-09-10T01:50:36.926Z,95.91
2022-09-10T01:51:35.505Z,96.82
2022-09-10T01:52:35.479Z,97.02
2022-09-10T01:53:36.680Z,97.33
2022-09-10T01:54:36.206Z,96.82
2022-09-10T01:55:35.395Z,97.02
2022-09-10T01:56:36.796Z,97.13
2022-09-10T01:57:35.604Z,96.82
2022-09-10T01:58:35.494Z,96.92
2022-09-10T01:59:36.234Z,96.22
2022-09-10T02:00:35.346Z,96.22
2022-09-10T02:01:36.140Z,96.56
2022-09-10T02:02:35.385Z,96.77
2022-09-10T02:03:36.714Z,96.56
2022-09-10T02:04:36.086Z,96.36
2022-09-10T02:05:35.320Z,97.07
2022-09-10T02:06:36.118Z,97.47
2022-09-10T02:07:35.276Z,97.58
2022-09-10T02:08:36.849Z,97.78
2022-09-10T02:09:35.716Z,97.67
2022-09-10T02:10:35.246Z,97.98
2022-09-10T02:11:35.905Z,97.53
2022-09-10T02:12:35.215Z,96.51
2022-09-10T02:13:36.696Z,96.82
2022-09-10T02:14:35.515Z,95.61
2022-09-10T02:15:36.017Z,95.40
2022-09-10T02:16:36.041Z,95.91
2022-09-10T02:17:35.946Z,96.11
2022-09-10T02:18:35.267Z,96.26
2022-09-10T02:19:36.655Z,96.56
2022-09-10T02:20:35.832Z,97.22
2022-09-10T02:21:35.116Z,97.83
2022-09-10T02:22:36.766Z,98.13
2022-09-10T02:23:35.606Z,98.07
2022-09-10T02:24:35.095Z,98.43
2022-09-10T02:25:36.666Z,98.23
2022-09-10T02:26:35.754Z,98.43
2022-09-10T02:27:35.937Z,98.43
2022-09-10T02:28:35.765Z,97.62
2022-09-10T02:29:35.895Z,98.43
2022-09-10T02:30:35.035Z,98.74
2022-09-10T02:31:36.734Z,98.63
2022-09-10T02:32:35.786Z,98.39
2022-09-10T02:33:35.005Z,97.78
2022-09-10T02:34:36.177Z,98.39
2022-09-10T02:35:35.655Z,97.98
2022-09-10T02:36:34.975Z,97.38
2022-09-10T02:37:35.696Z,96.41
2022-09-10T02:38:35.835Z,97.88
2022-09-10T02:39:35.655Z,98.08
2022-09-10T02:40:35.815Z,98.69
2022-09-10T02:41:34.925Z,98.28
2022-09-10T02:42:34.915Z,98.18
2022-09-10T02:43:36.304Z,97.94
2022-09-10T02:44:35.335Z,97.83
2022-09-10T02:45:35.695Z,97.73
2022-09-10T02:46:35.699Z,98.14
2022-09-10T02:47:34.885Z,96.01
2022-09-10T02:48:36.375Z,96.72
2022-09-10T02:49:35.345Z,96.31
2022-09-10T02:50:34.874Z,97.02
2022-09-10T02:51:35.615Z,97.63
2022-09-10T02:52:34.795Z,97.67
2022-09-10T02:53:36.458Z,97.47
2022-09-10T02:54:35.459Z,97.17
2022-09-10T02:55:34.775Z,97.17
2022-09-10T02:56:36.286Z,97.38
2022-09-10T02:57:35.086Z,97.98
2022-09-10T02:58:34.771Z,97.98
2022-09-10T02:59:36.255Z,97.98
2022-09-10T03:00:35.966Z,96.87
2022-09-10T03:01:34.707Z,97.07
2022-09-10T03:02:34.706Z,96.87
2022-09-10T03:03:36.314Z,97.98
2022-09-10T03:04:35.501Z,96.66
2022-09-10T03:05:34.716Z,96.77
2022-09-10T03:06:36.224Z,97.27
2022-09-10T03:07:35.286Z,97.38
2022-09-10T03:08:34.666Z,97.27
2022-09-10T03:09:35.306Z,96.15
2022-09-10T03:10:34.665Z,96.66
2022-09-10T03:11:36.336Z,96.26
2022-09-10T03:12:35.325Z,96.56
2022-09-10T03:13:35.651Z,96.46
2022-09-10T03:14:34.574Z,97.07
2022-09-10T03:15:36.506Z,97.67
2022-09-10T03:16:35.349Z,97.27
2022-09-10T03:17:35.425Z,96.46
2022-09-10T03:18:35.590Z,96.36
2022-09-10T03:19:34.526Z,96.36
2022-09-10T03:20:35.155Z,97.07
2022-09-10T03:21:34.505Z,97.63
2022-09-10T03:22:37.925Z,96.72
2022-09-10T03:23:37.438Z,97.33
2022-09-10T03:24:34.494Z,97.53
2022-09-10T03:25:35.917Z,97.79
2022-09-10T03:26:35.558Z,96.17
2022-09-10T03:27:34.485Z,95.26
2022-09-10T03:28:35.825Z,95.81
2022-09-10T03:29:35.336Z,96.11
2022-09-10T03:30:34.417Z,96.01
2022-09-10T03:31:36.130Z,96.31
2022-09-10T03:32:35.114Z,96.51
2022-09-10T03:33:34.435Z,96.31
2022-09-10T03:34:35.815Z,96.62
2022-09-10T03:35:35.225Z,95.91
2022-09-10T03:36:35.305Z,96.51
2022-09-10T03:37:34.339Z,96.72
2022-09-10T03:38:35.851Z,97.02
2022-09-10T03:39:34.865Z,96.42
2022-09-10T03:40:35.146Z,96.22
2022-09-10T03:41:34.296Z,97.02
2022-09-10T03:42:35.776Z,96.72
2022-09-10T03:43:34.915Z,96.22
2022-09-10T03:44:36.174Z,98.03
2022-09-10T03:45:34.300Z,97.53
2022-09-10T03:46:34.267Z,97.23
2022-09-10T03:47:35.756Z,96.01
2022-09-10T03:48:34.746Z,96.22
2022-09-10T03:49:34.216Z,96.72
2022-09-10T03:50:34.845Z,96.56
2022-09-10T03:51:35.296Z,96.77
2022-09-10T03:52:35.696Z,96.36
2022-09-10T03:53:35.025Z,96.56
2022-09-10T03:54:34.787Z,96.97
2022-09-10T03:55:34.205Z,95.95
2022-09-10T03:56:35.864Z,95.95
2022-09-10T03:57:34.984Z,96.36
2022-09-10T03:58:34.922Z,96.97
2022-09-10T03:59:34.116Z,96.06
2022-09-10T04:00:35.805Z,96.92
2022-09-10T04:01:34.757Z,97.43
2022-09-10T04:02:34.086Z,96.82
2022-09-10T04:03:35.684Z,96.22
2022-09-10T04:04:34.765Z,95.10
2022-09-10T04:05:34.096Z,95.71
2022-09-10T04:06:36.024Z,96.31
2022-09-10T04:07:35.285Z,96.57
2022-09-10T04:08:34.891Z,96.27
2022-09-10T04:09:34.594Z,95.97
2022-09-10T04:10:34.076Z,95.66
2022-09-10T04:11:35.315Z,95.46
2022-09-10T04:12:34.787Z,95.66
2022-09-10T04:13:33.995Z,95.46
2022-09-10T04:14:34.786Z,95.46
2022-09-10T04:15:33.944Z,95.76
2022-09-10T04:16:34.848Z,95.26
2022-09-10T04:17:34.705Z,95.46
2022-09-10T04:18:34.781Z,95.46
2022-09-10T04:19:34.684Z,95.26
2022-09-10T04:20:34.767Z,95.46
2022-09-10T04:21:33.936Z,93.84
2022-09-10T04:22:34.446Z,94.24
2022-09-10T04:23:35.616Z,94.14
2022-09-10T04:24:35.448Z,95.36
2022-09-10T04:25:33.839Z,94.24
2022-09-10T04:26:35.255Z,95.97
2022-09-10T04:27:34.686Z,94.70
2022-09-10T04:28:34.522Z,94.59
2022-09-10T04:29:34.038Z,94.90
2022-09-10T04:30:36.527Z,95.20
2022-09-10T04:31:35.418Z,95.30
2022-09-10T04:32:34.254Z,95.55
2022-09-10T04:33:33.765Z,96.06
2022-09-10T04:34:34.484Z,95.86
2022-09-10T04:35:33.736Z,95.86
2022-09-10T04:36:35.275Z,96.06
2022-09-10T04:37:33.986Z,96.00
2022-09-10T04:38:34.631Z,96.46
2022-09-10T04:39:33.739Z,95.55
2022-09-10T04:40:35.276Z,95.25
2022-09-10T04:41:34.217Z,95.04
2022-09-10T04:42:34.545Z,94.74
2022-09-10T04:43:33.656Z,94.94
2022-09-10T04:44:35.264Z,95.14
2022-09-10T04:45:34.405Z,94.74
2022-09-10T04:46:33.625Z,94.43
2022-09-10T04:47:34.395Z,94.84
2022-09-10T04:48:33.608Z,94.94
2022-09-10T04:49:35.435Z,94.54
2022-09-10T04:50:34.219Z,94.89
2022-09-10T04:51:33.584Z,95.09
2022-09-10T04:52:35.256Z,95.19
2022-09-10T04:53:34.135Z,95.29
2022-09-10T04:54:33.576Z,95.39
2022-09-10T04:55:34.326Z,95.50
2022-09-10T04:56:33.524Z,95.54
2022-09-10T04:57:34.715Z,95.84
2022-09-10T04:58:38.467Z,95.94
2022-09-10T04:59:33.544Z,95.74
2022-09-10T05:00:33.484Z,95.34
2022-09-10T05:01:34.770Z,95.94
2022-09-10T05:02:33.625Z,95.74
2022-09-10T05:03:33.446Z,96.04
2022-09-10T05:04:34.787Z,96.04
2022-09-10T05:05:33.735Z,95.54
2022-09-10T05:06:33.405Z,96.25
2022-09-10T05:07:34.186Z,96.15
2022-09-10T05:08:34.167Z,96.30
2022-09-10T05:09:33.385Z,95.50
2022-09-10T05:10:34.785Z,95.59
2022-09-10T05:11:33.686Z,94.18
2022-09-10T05:12:33.505Z,95.39
2022-09-10T05:13:34.706Z,94.78
2022-09-10T05:14:33.624Z,94.68
2022-09-10T05:15:33.328Z,95.19
2022-09-10T05:16:34.954Z,96.15
2022-09-10T05:17:34.894Z,94.94
2022-09-10T05:18:33.296Z,94.13
2022-09-10T05:19:34.767Z,94.49
2022-09-10T05:20:34.594Z,94.09
2022-09-10T05:21:33.266Z,93.48
2022-09-10T05:22:40.131Z,94.39
2022-09-10T05:23:34.244Z,94.09
2022-09-10T05:24:33.856Z,92.47
2022-09-10T05:25:34.055Z,93.07
2022-09-10T05:26:33.847Z,93.58
2022-09-10T05:27:33.236Z,93.58
2022-09-10T05:28:33.916Z,92.97
2022-09-10T05:29:33.184Z,93.07
2022-09-10T05:30:34.855Z,92.63
2022-09-10T05:31:34.092Z,92.57
2022-09-10T05:32:33.926Z,92.67
2022-09-10T05:33:34.006Z,92.77
2022-09-10T05:34:33.926Z,92.77
2022-09-10T05:35:33.115Z,93.18
2022-09-10T05:36:34.796Z,93.07
2022-09-10T05:37:33.694Z,92.97
2022-09-10T05:38:37.035Z,92.82
2022-09-10T05:39:33.932Z,93.73
2022-09-10T05:40:33.956Z,94.43
2022-09-10T05:41:33.845Z,95.04
2022-09-10T05:42:33.056Z,95.55
2022-09-10T05:43:34.451Z,95.86
2022-09-10T05:44:33.258Z,95.95
2022-09-10T05:45:33.088Z,95.65
2022-09-10T05:46:34.377Z,96.66
2022-09-10T05:47:33.176Z,95.40
2022-09-10T05:48:32.986Z,95.71
2022-09-10T05:49:34.326Z,95.71
2022-09-10T05:50:34.296Z,95.30
2022-09-10T05:51:32.965Z,96.11
2022-09-10T05:52:33.925Z,95.81
2022-09-10T05:53:33.766Z,96.51
2022-09-10T05:54:32.935Z,96.31
2022-09-10T05:55:34.318Z,95.81
2022-09-10T05:56:33.315Z,96.22
2022-09-10T05:57:32.955Z,95.71
2022-09-10T05:58:34.575Z,95.81
2022-09-10T05:59:33.824Z,95.81
2022-09-10T06:00:33.605Z,95.76
2022-09-10T06:01:32.846Z,96.07
2022-09-10T06:02:33.027Z,95.31
2022-09-10T06:03:34.995Z,95.21
2022-09-10T06:04:34.135Z,94.15
2022-09-10T06:05:33.656Z,94.06
2022-09-10T06:06:32.804Z,94.15
2022-09-10T06:07:33.598Z,93.81
2022-09-10T06:08:33.635Z,92.96
2022-09-10T06:09:32.765Z,92.76
2022-09-10T06:10:32.758Z,91.64
2022-09-10T06:11:35.096Z,91.14
2022-09-10T06:12:33.926Z,91.30
2022-09-10T06:13:32.725Z,91.19
2022-09-10T06:14:33.804Z,90.19
2022-09-10T06:15:32.704Z,89.78
2022-09-10T06:16:34.414Z,91.05
2022-09-10T06:17:33.416Z,90.34
2022-09-10T06:18:32.675Z,90.04
2022-09-10T06:19:33.434Z,89.59
2022-09-10T06:20:32.660Z,89.29
2022-09-10T06:21:34.976Z,88.75
2022-09-10T06:22:33.955Z,87.98
2022-09-10T06:23:32.632Z,88.59
2022-09-10T06:24:34.357Z,89.09
2022-09-10T06:25:33.164Z,88.45
2022-09-10T06:26:33.234Z,86.53
2022-09-10T06:27:32.584Z,85.36
2022-09-10T06:28:33.894Z,86.73
2022-09-10T06:29:32.707Z,86.13
2022-09-10T06:30:33.359Z,86.18
2022-09-10T06:31:33.346Z,86.55
2022-09-10T06:32:32.515Z,84.63
2022-09-10T06:33:33.717Z,84.23
2022-09-10T06:34:33.315Z,84.63
2022-09-10T06:35:32.494Z,84.94
2022-09-10T06:36:33.980Z,85.20
2022-09-10T06:37:32.875Z,84.19
2022-09-10T06:38:33.224Z,83.18
2022-09-10T06:39:33.286Z,82.54
2022-09-10T06:40:32.466Z,81.19
2022-09-10T06:41:33.816Z,82.10
2022-09-10T06:42:33.048Z,81.76
2022-09-10T06:43:33.026Z,81.65
2022-09-10T06:44:32.396Z,81.72
2022-09-10T06:45:34.034Z,80.57
2022-09-10T06:47:10.658Z,80.13
2022-09-10T06:48:38.734Z,77.92
2022-09-10T06:49:33.086Z,79.13
2022-09-10T06:50:34.225Z,77.36
2022-09-10T06:51:32.326Z,79.37
2022-09-10T06:52:33.510Z,78.83
2022-09-10T06:53:33.155Z,78.63
2022-09-10T06:54:32.297Z,79.77
2022-09-10T06:55:33.108Z,78.40
2022-09-10T06:56:32.266Z,79.50
2022-09-10T06:57:33.095Z,79.50
2022-09-10T06:58:32.265Z,79.35
2022-09-10T06:59:33.795Z,80.49
2022-09-10T07:00:32.574Z,79.32
2022-09-10T07:01:32.276Z,80.46
2022-09-10T07:02:32.914Z,80.66
2022-09-10T07:03:32.374Z,80.80
2022-09-10T07:04:33.736Z,80.90
2022-09-10T07:05:32.906Z,82.48
2022-09-10T07:06:32.874Z,81.07
2022-09-10T07:07:32.174Z,81.77
2022-09-10T07:08:34.147Z,81.84
2022-09-10T07:09:33.516Z,81.53
2022-09-10T07:10:32.914Z,79.08
2022-09-10T07:11:32.175Z,79.58
2022-09-10T07:12:33.929Z,79.79
2022-09-10T07:13:33.165Z,80.45
2022-09-10T07:14:32.085Z,81.85
2022-09-10T07:15:33.656Z,82.12
2022-09-10T07:16:33.715Z,80.81
2022-09-10T07:17:32.227Z,78.60
2022-09-10T07:18:33.325Z,78.16
2022-09-10T07:19:32.348Z,77.26
2022-09-10T07:20:32.075Z,78.66
2022-09-10T07:21:33.445Z,77.86
2022-09-10T07:22:32.386Z,76.32
2022-09-10T07:23:31.996Z,76.85
2022-09-10T07:24:33.334Z,76.04
2022-09-10T07:25:32.265Z,76.25
2022-09-10T07:26:31.956Z,76.61
2022-09-10T07:27:33.396Z,75.10
2022-09-10T07:28:32.536Z,70.96
2022-09-10T07:29:31.947Z,69.13
2022-09-10T07:30:33.355Z,68.10
2022-09-10T07:31:33.145Z,66.31
2022-09-10T07:32:31.905Z,64.25
2022-09-10T07:33:33.406Z,65.91
2022-09-10T07:34:32.596Z,66.44
2022-09-10T07:35:31.880Z,65.50
2022-09-10T07:36:32.617Z,66.53
2022-09-10T07:37:31.856Z,68.46
2022-09-10T07:38:33.256Z,65.40
2022-09-10T07:39:32.305Z,68.79
2022-09-10T07:40:31.856Z,69.23
2022-09-10T07:41:32.645Z,65.84
2022-09-10T07:42:31.854Z,65.05
2022-09-10T07:43:33.356Z,65.50
2022-09-10T07:44:32.426Z,65.04
2022-09-10T07:45:31.819Z,61.46
2022-09-10T07:46:31.756Z,61.34
2022-09-10T07:47:33.375Z,58.57
2022-09-10T07:48:32.725Z,56.34
2022-09-10T07:49:31.747Z,57.69
2022-09-10T07:50:33.614Z,57.75
2022-09-10T07:51:32.505Z,60.30
2022-09-10T07:52:31.794Z,60.17
2022-09-10T07:53:33.346Z,56.29
2022-09-10T07:54:32.585Z,56.71
2022-09-10T07:55:31.675Z,60.35
2022-09-10T07:56:33.308Z,58.26
2022-09-10T07:57:32.145Z,57.87
2022-09-10T07:58:31.738Z,57.14
2022-09-10T07:59:33.246Z,59.28
2022-09-10T08:00:32.117Z,60.43
2022-09-10T08:01:33.354Z,60.32
2022-09-10T08:02:32.308Z,60.86
2022-09-10T08:03:31.585Z,58.78
2022-09-10T08:04:36.831Z,56.56
2022-09-10T08:05:33.084Z,53.50
2022-09-10T08:06:32.260Z,52.73
2022-09-10T08:07:31.566Z,51.20
2022-09-10T08:08:33.026Z,51.40
2022-09-10T08:09:32.354Z,46.96
2022-09-10T08:10:31.594Z,45.67
2022-09-10T08:11:32.997Z,45.83
2022-09-10T08:12:31.495Z,46.72
2022-09-10T08:13:32.754Z,46.25
2022-09-10T08:14:32.246Z,44.90
2022-09-10T08:15:32.095Z,44.95
2022-09-10T08:16:32.316Z,45.23
2022-09-10T08:17:31.466Z,42.86
2022-09-10T08:18:32.848Z,45.20
2022-09-10T08:19:32.115Z,43.57
2022-09-10T08:20:32.404Z,43.44
2022-09-10T08:21:32.126Z,44.40
2022-09-10T08:22:31.375Z,43.95
2022-09-10T08:23:32.116Z,45.47
2022-09-10T08:24:32.398Z,43.71
2022-09-10T08:25:31.354Z,44.96
2022-09-10T08:26:32.299Z,45.48
2022-09-10T08:27:32.094Z,47.36
2022-09-10T08:28:31.325Z,43.96
2022-09-10T08:29:32.886Z,45.49
2022-09-10T08:30:31.773Z,42.40
2022-09-10T08:31:31.296Z,43.33
2022-09-10T08:32:32.015Z,40.76
2022-09-10T08:33:31.265Z,42.33
2022-09-10T08:34:32.886Z,41.09
2022-09-10T08:35:32.344Z,43.20
2022-09-10T08:36:31.307Z,43.30
2022-09-10T08:37:32.995Z,43.32
2022-09-10T08:38:31.653Z,44.13
2022-09-10T08:39:32.064Z,43.52
2022-09-10T08:40:31.196Z,41.16
2022-09-10T08:41:32.884Z,42.50
2022-09-10T08:42:32.016Z,44.20
2022-09-10T08:43:32.005Z,44.76
2022-09-10T08:44:31.210Z,46.53
2022-09-10T08:45:32.094Z,42.16
2022-09-10T08:46:32.906Z,39.58
2022-09-10T08:47:31.156Z,41.24
2022-09-10T08:48:32.137Z,42.43
2022-09-10T08:49:31.104Z,40.64
2022-09-10T08:50:31.944Z,38.62
2022-09-10T08:51:31.084Z,38.86
2022-09-10T08:52:32.966Z,37.26
2022-09-10T08:53:31.086Z,37.51
2022-09-10T08:54:32.517Z,38.90
2022-09-10T08:55:31.796Z,40.39
2022-09-10T08:56:31.076Z,38.28
2022-09-10T08:57:31.885Z,38.20
2022-09-10T08:58:31.538Z,39.17
2022-09-10T08:59:32.265Z,40.03
2022-09-10T09:00:31.726Z,40.41
2022-09-10T09:01:31.034Z,40.39
2022-09-10T09:02:48.425Z,39.70
2022-09-10T09:03:31.747Z,40.66
2022-09-10T09:04:31.756Z,40.88
2022-09-10T09:05:32.155Z,40.41
2022-09-10T09:06:30.995Z,40.80
2022-09-10T09:07:32.374Z,41.00
2022-09-10T09:08:32.195Z,41.00
2022-09-10T09:09:31.755Z,37.87
2022-09-10T09:10:30.946Z,35.66
2022-09-10T09:11:32.915Z,35.17
2022-09-10T09:12:30.897Z,37.55
2022-09-10T09:13:30.885Z,37.27
2022-09-10T09:14:31.655Z,37.66
2022-09-10T09:15:30.913Z,38.25
2022-09-10T09:16:32.336Z,35.76
2022-09-10T09:17:31.467Z,37.81
2022-09-10T09:18:31.639Z,35.60
2022-09-10T09:19:30.806Z,36.80
2022-09-10T09:20:31.755Z,35.85
2022-09-10T09:21:30.815Z,36.72
2022-09-10T09:22:34.125Z,37.00
2022-09-10T09:23:31.185Z,36.61
2022-09-10T09:24:31.006Z,37.84
2022-09-10T09:25:33.115Z,38.53
2022-09-10T09:26:31.996Z,39.92
2022-09-10T09:27:30.735Z,39.40
2022-09-10T09:28:32.347Z,40.70
2022-09-10T09:29:31.144Z,39.31
2022-09-10T09:30:30.806Z,39.11
2022-09-10T09:31:32.744Z,38.60
2022-09-10T09:32:31.714Z,39.01
2022-09-10T09:33:30.666Z,39.64
2022-09-10T09:34:32.286Z,40.78
2022-09-10T09:35:31.295Z,44.74
2022-09-10T09:36:30.795Z,40.64
2022-09-10T09:37:32.275Z,39.94
2022-09-10T09:38:31.297Z,42.99
2022-09-10T09:39:30.635Z,39.01
2022-09-10T09:40:31.395Z,40.55
2022-09-10T09:41:31.594Z,42.91
2022-09-10T09:42:31.275Z,43.99
2022-09-10T09:43:30.576Z,40.74
2022-09-10T09:44:32.085Z,41.91
2022-09-10T09:45:31.014Z,43.92
2022-09-10T09:46:31.404Z,46.63
2022-09-10T09:47:30.524Z,46.95
2022-09-10T09:48:31.924Z,48.36
2022-09-10T09:49:31.174Z,48.65
2022-09-10T09:50:31.265Z,48.58
2022-09-10T09:51:30.486Z,49.99
2022-09-10T09:52:31.895Z,50.83
2022-09-10T09:53:31.126Z,52.34
2022-09-10T09:55:30.445Z,53.88
2022-09-10T09:56:31.504Z,53.93
2022-09-10T09:57:30.564Z,56.34
2022-09-10T09:58:30.476Z,58.23
2022-09-10T09:59:32.158Z,57.09
2022-09-10T10:00:31.856Z,57.59
2022-09-10T10:01:31.202Z,57.22
2022-09-10T10:02:31.302Z,56.75
2022-09-10T10:03:30.376Z,58.17
2022-09-10T10:04:31.915Z,58.67
2022-09-10T10:05:30.845Z,58.54
2022-09-10T10:06:30.376Z,57.79
2022-09-10T10:07:31.194Z,56.27
2022-09-10T10:08:30.352Z,57.41
2022-09-10T10:09:31.954Z,54.42
2022-09-10T10:10:31.164Z,51.82
2022-09-10T10:11:30.315Z,52.14
2022-09-10T10:12:30.946Z,52.96
2022-09-10T10:13:30.315Z,52.78
2022-09-10T10:14:32.097Z,51.42
2022-09-10T10:15:30.856Z,50.23
2022-09-10T10:16:30.245Z,51.37
2022-09-10T10:17:31.934Z,52.91
2022-09-10T10:18:31.466Z,51.25
2022-09-10T10:19:30.837Z,49.24
2022-09-10T10:20:30.206Z,49.00
2022-09-10T10:21:30.776Z,47.64
2022-09-10T10:22:31.154Z,49.19
2022-09-10T10:23:31.277Z,49.54
2022-09-10T10:24:31.165Z,50.70
2022-09-10T10:25:30.155Z,52.34
2022-09-10T10:26:31.101Z,52.79
2022-09-10T10:27:30.129Z,54.11
2022-09-10T10:28:30.965Z,55.05
2022-09-10T10:29:31.035Z,54.75
2022-09-10T10:30:30.922Z,53.99
2022-09-10T10:31:31.615Z,56.81
2022-09-10T10:32:31.086Z,56.08
2022-09-10T10:33:30.067Z,54.31
2022-09-10T10:34:30.505Z,52.76
2022-09-10T10:35:30.076Z,53.66
2022-09-10T10:36:30.034Z,52.19
2022-09-10T10:37:30.016Z,53.09
2022-09-10T10:38:30.694Z,53.69
2022-09-10T10:39:30.815Z,52.72
2022-09-10T10:40:30.005Z,53.41
2022-09-10T10:41:31.095Z,54.63
2022-09-10T10:42:31.557Z,55.70
2022-09-10T10:43:29.967Z,54.63
2022-09-10T10:44:30.826Z,55.16
2022-09-10T10:45:29.926Z,56.77
2022-09-10T10:46:29.991Z,56.01
2022-09-10T10:47:31.616Z,56.93
2022-09-10T10:48:31.214Z,56.06
2022-09-10T10:49:31.005Z,55.11
2022-09-10T10:50:31.145Z,53.71
2022-09-10T10:51:30.936Z,54.50
2022-09-10T10:52:29.867Z,54.06
2022-09-10T10:53:33.506Z,54.26
2022-09-10T10:54:30.956Z,53.96
2022-09-10T10:55:30.746Z,53.78
2022-09-10T10:56:29.877Z,53.99
2022-09-10T10:57:31.304Z,54.06
2022-09-10T10:58:29.796Z,52.97
2022-09-10T10:59:30.565Z,51.27
2022-09-10T11:00:30.734Z,51.37
2022-09-10T11:01:30.014Z,51.25
2022-09-10T11:02:29.930Z,51.40
2022-09-10T11:03:31.735Z,51.57
2022-09-10T11:04:30.805Z,50.85
2022-09-10T11:05:29.735Z,50.43
2022-09-10T11:06:29.726Z,49.46
2022-09-10T11:07:30.495Z,49.36
2022-09-10T11:08:31.620Z,49.68
2022-09-10T11:09:30.964Z,48.52
2022-09-10T11:10:32.967Z,48.74
2022-09-10T11:11:30.556Z,49.85
2022-09-10T11:12:29.655Z,50.57
2022-09-10T11:13:29.718Z,50.15
2022-09-10T11:14:31.955Z,50.05
2022-09-10T11:15:31.717Z,49.36
2022-09-10T11:16:30.716Z,49.53
2022-09-10T11:17:30.824Z,50.33
2022-09-10T11:18:30.544Z,50.10
2022-09-10T11:19:30.794Z,49.80
2022-09-10T11:20:31.264Z,48.74
2022-09-10T11:21:30.737Z,49.53
2022-09-10T11:22:30.945Z,49.66
2022-09-10T11:23:30.716Z,49.16
2022-09-10T11:24:30.816Z,49.63
2022-09-10T11:25:30.595Z,49.63
2022-09-10T11:26:31.166Z,49.73
2022-09-10T11:27:29.517Z,50.13
2022-09-10T11:28:29.524Z,50.60
2022-09-10T11:29:29.514Z,50.33
2022-09-10T11:30:30.416Z,49.43
2022-09-10T11:31:30.125Z,50.43
2022-09-10T11:32:31.645Z,51.10
2022-09-10T11:33:31.507Z,51.28
2022-09-10T11:34:29.448Z,49.88
2022-09-10T11:35:31.065Z,49.58
2022-09-10T11:36:30.775Z,49.56
2022-09-10T11:37:31.034Z,49.88
2022-09-10T11:38:30.455Z,49.58
2022-09-10T11:39:30.535Z,49.29
2022-09-10T11:40:29.427Z,50.48
2022-09-10T11:41:29.375Z,49.98
2022-09-10T11:42:30.255Z,48.91
2022-09-10T11:43:30.336Z,49.21
2022-09-10T11:44:33.361Z,49.43
2022-09-10T11:45:29.336Z,48.36
2022-09-10T11:46:30.017Z,49.36
2022-09-10T11:47:30.135Z,48.46
2022-09-10T11:48:30.150Z,49.76
2022-09-10T11:49:31.126Z,50.15
2022-09-10T11:50:34.305Z,49.38
2022-09-10T11:51:31.625Z,49.60
2022-09-10T11:52:31.266Z,50.52
2022-09-10T11:53:30.492Z,50.52
2022-09-10T11:54:30.927Z,50.55
2022-09-10T11:55:29.228Z,50.65
2022-09-10T11:56:29.218Z,51.22
2022-09-10T11:57:30.875Z,51.92
2022-09-10T11:58:30.536Z,50.92
2022-09-10T11:59:29.174Z,52.02
2022-09-10T12:00:29.257Z,52.62
2022-09-10T12:01:29.196Z,53.91
2022-09-10T12:02:29.208Z,54.21
2022-09-10T12:03:29.150Z,54.49
2022-09-10T12:04:30.376Z,54.19
2022-09-10T12:05:31.015Z,53.66
2022-09-10T12:06:30.835Z,53.14
2022-09-10T12:07:29.175Z,53.04
2022-09-10T12:08:29.106Z,52.02
2022-09-10T12:09:29.127Z,51.72
2022-09-10T12:10:31.225Z,51.52
2022-09-10T12:11:30.967Z,52.29
2022-09-10T12:12:29.825Z,52.26
2022-09-10T12:13:29.046Z,50.05
2022-09-10T12:14:29.205Z,50.26
2022-09-10T12:15:33.066Z,50.45
2022-09-10T12:16:30.716Z,49.46
2022-09-10T12:17:29.836Z,50.45
2022-09-10T12:18:29.046Z,48.66
2022-09-10T12:19:31.434Z,50.08
2022-09-10T12:20:28.984Z,50.58
2022-09-10T12:21:29.010Z,52.04
2022-09-10T12:22:30.536Z,51.17
2022-09-10T12:23:33.394Z,51.57
2022-09-10T12:24:28.998Z,51.37
2022-09-10T12:25:33.643Z,51.57
2022-09-10T12:26:28.945Z,51.20
2022-09-10T12:27:29.017Z,51.89
2022-09-10T12:28:28.964Z,51.52
2022-09-10T12:29:29.905Z,51.82
2022-09-10T12:30:28.866Z,51.92
2022-09-10T12:31:30.984Z,52.32
2022-09-10T12:32:29.925Z,51.72
2022-09-10T12:33:29.647Z,50.52
2022-09-10T12:34:28.945Z,51.92
2022-09-10T12:35:29.089Z,51.03
2022-09-10T12:36:28.826Z,51.82
2022-09-10T12:37:29.868Z,51.92
2022-09-10T12:38:28.785Z,52.51
2022-09-10T12:39:29.526Z,51.70
2022-09-10T12:40:30.256Z,49.91
2022-09-10T12:41:29.037Z,50.60
2022-09-10T12:42:30.015Z,49.73
2022-09-10T12:43:29.537Z,50.63
2022-09-10T12:44:30.105Z,51.03
2022-09-10T12:45:30.175Z,51.52
2022-09-10T12:46:29.441Z,51.03
2022-09-10T12:47:29.505Z,51.22
2022-09-10T12:48:29.657Z,52.32
2022-09-10T12:49:28.675Z,52.02
2022-09-10T12:50:29.465Z,50.25
2022-09-10T12:51:30.466Z,50.35
2022-09-10T12:52:30.676Z,51.07
2022-09-10T12:53:29.506Z,52.17
2022-09-10T12:54:29.986Z,53.69